createdAt,value
2017-08-29T00:00:07.151Z,0
2017-08-29T00:00:47.841Z,0
2017-08-29T00:01:28.751Z,0
2017-08-29T00:02:09.581Z,0
2017-08-29T00:02:50.662Z,0
2017-08-29T00:03:31.213Z,0
2017-08-29T00:04:12.005Z,0
2017-08-29T00:04:52.886Z,0
2017-08-29T00:05:34.107Z,0
2017-08-29T00:06:15.248Z,0
2017-08-29T00:06:55.950Z,0
2017-08-29T00:07:36.608Z,0
2017-08-29T00:08:17.335Z,0
2017-08-29T00:08:58.092Z,0
2017-08-29T00:09:38.685Z,0
2017-08-29T00:10:19.317Z,0
2017-08-29T00:11:00.699Z,0
2017-08-29T00:11:41.258Z,0
2017-08-29T00:12:21.990Z,0
2017-08-29T00:13:03.329Z,0
2017-08-29T00:13:43.856Z,0
2017-08-29T00:14:24.413Z,0
2017-08-29T00:15:04.946Z,0
2017-08-29T00:15:45.483Z,0
2017-08-29T00:16:26.045Z,0
2017-08-29T00:17:06.589Z,0
2017-08-29T00:17:47.140Z,0
2017-08-29T00:18:27.666Z,0
2017-08-29T00:19:08.200Z,0
2017-08-29T00:19:48.711Z,0
2017-08-29T00:20:29.315Z,0
2017-08-29T00:21:09.869Z,0
2017-08-29T00:21:50.374Z,0
2017-08-29T00:22:30.921Z,0
2017-08-29T00:23:11.478Z,0
2017-08-29T00:23:52.093Z,0
2017-08-29T00:24:33.589Z,0
2017-08-29T00:25:14.108Z,0
2017-08-29T00:25:54.684Z,0
2017-08-29T00:26:35.191Z,0
2017-08-29T00:27:15.723Z,0
2017-08-29T00:27:56.288Z,0
2017-08-29T00:28:39.992Z,0
2017-08-29T00:29:28.310Z,0
2017-08-29T00:31:41.755Z,0
2017-08-29T00:32:22.328Z,0
2017-08-29T00:33:02.889Z,0
2017-08-29T00:33:43.442Z,0
2017-08-29T00:34:24.036Z,0
2017-08-29T00:35:04.536Z,0
2017-08-29T00:35:45.092Z,0
2017-08-29T00:36:25.625Z,0
2017-08-29T00:37:06.171Z,0
2017-08-29T00:37:46.704Z,0
2017-08-29T00:38:27.293Z,0
2017-08-29T00:39:07.827Z,0
2017-08-29T00:39:48.362Z,0
2017-08-29T00:40:28.887Z,0
2017-08-29T00:41:09.400Z,0
2017-08-29T00:41:49.931Z,0
2017-08-29T00:42:30.462Z,0
2017-08-29T00:43:10.989Z,0
2017-08-29T00:43:51.551Z,0
2017-08-29T00:44:32.123Z,0
2017-08-29T00:45:12.643Z,0
2017-08-29T00:45:53.158Z,0
2017-08-29T00:46:33.700Z,0
2017-08-29T00:47:14.202Z,0
2017-08-29T00:47:54.784Z,0
2017-08-29T00:48:35.343Z,0
2017-08-29T00:49:15.840Z,0
2017-08-29T00:49:56.395Z,0
2017-08-29T00:50:36.916Z,0
2017-08-29T00:51:17.463Z,0
2017-08-29T00:51:58.033Z,0
2017-08-29T00:52:38.541Z,0
2017-08-29T00:53:19.092Z,0
2017-08-29T00:53:59.683Z,0
2017-08-29T00:54:40.183Z,0
2017-08-29T00:55:20.736Z,0
2017-08-29T00:56:01.264Z,0
2017-08-29T00:56:41.778Z,0
2017-08-29T00:57:22.346Z,0
2017-08-29T00:58:02.873Z,0
2017-08-29T00:58:43.431Z,0
2017-08-29T00:59:23.998Z,0
2017-08-29T01:00:04.531Z,0
2017-08-29T01:00:45.061Z,0
2017-08-29T01:01:25.628Z,0
2017-08-29T01:02:06.171Z,0
2017-08-29T01:02:46.713Z,0
2017-08-29T01:03:27.253Z,0
2017-08-29T01:04:07.787Z,0
2017-08-29T01:04:48.346Z,0
2017-08-29T01:05:28.912Z,0
2017-08-29T01:06:09.392Z,0
2017-08-29T01:06:49.919Z,0
2017-08-29T01:07:30.442Z,0
2017-08-29T01:08:11.013Z,0
2017-08-29T01:08:51.513Z,0
2017-08-29T01:09:32.064Z,0
2017-08-29T01:10:12.633Z,0
2017-08-29T01:10:53.166Z,0
2017-08-29T01:11:33.724Z,0
2017-08-29T01:12:14.244Z,0
2017-08-29T01:12:54.816Z,0
2017-08-29T01:13:35.383Z,0
2017-08-29T01:14:15.855Z,0
2017-08-29T01:14:56.412Z,0
2017-08-29T01:15:36.937Z,0
2017-08-29T01:16:17.475Z,0
2017-08-29T01:16:58.033Z,0
2017-08-29T01:17:38.571Z,0
2017-08-29T01:18:19.137Z,0
2017-08-29T01:18:59.859Z,0
2017-08-29T01:19:40.387Z,0
2017-08-29T01:20:20.905Z,0
2017-08-29T01:21:01.451Z,0
2017-08-29T01:21:42.005Z,0
2017-08-29T01:22:22.579Z,0
2017-08-29T01:23:03.139Z,0
2017-08-29T01:23:43.662Z,0
2017-08-29T01:24:24.142Z,0
2017-08-29T01:25:04.698Z,0
2017-08-29T01:25:45.232Z,0
2017-08-29T01:26:25.748Z,0
2017-08-29T01:27:06.307Z,0
2017-08-29T01:27:46.823Z,0
2017-08-29T01:28:27.330Z,0
2017-08-29T01:29:07.896Z,0
2017-08-29T01:29:48.464Z,0
2017-08-29T01:30:29.011Z,0
2017-08-29T01:31:09.555Z,0
2017-08-29T01:31:50.180Z,0
2017-08-29T01:32:30.861Z,0
2017-08-29T01:33:11.404Z,0
2017-08-29T01:33:51.969Z,0
2017-08-29T01:34:32.503Z,0
2017-08-29T01:35:13.039Z,0
2017-08-29T01:35:53.568Z,0
2017-08-29T01:36:34.124Z,0
2017-08-29T01:37:14.652Z,0
2017-08-29T01:37:55.173Z,0
2017-08-29T01:38:35.723Z,0
2017-08-29T01:39:16.263Z,0
2017-08-29T01:39:56.838Z,0
2017-08-29T01:40:37.323Z,0
2017-08-29T01:41:17.904Z,0
2017-08-29T01:41:58.406Z,0
2017-08-29T01:42:39.011Z,0
2017-08-29T01:43:19.517Z,0
2017-08-29T01:44:00.031Z,0
2017-08-29T01:44:40.616Z,0
2017-08-29T01:45:21.123Z,0
2017-08-29T01:46:01.625Z,0
2017-08-29T01:46:42.172Z,0
2017-08-29T01:47:22.703Z,0
2017-08-29T01:48:03.247Z,0
2017-08-29T01:48:43.822Z,0
2017-08-29T01:49:24.394Z,0
2017-08-29T01:50:04.900Z,0
2017-08-29T01:50:45.474Z,0
2017-08-29T01:51:26.004Z,0
2017-08-29T01:52:06.585Z,0
2017-08-29T01:52:47.080Z,0
2017-08-29T01:53:27.616Z,0
2017-08-29T01:54:08.166Z,0
2017-08-29T01:54:48.701Z,0
2017-08-29T01:55:29.293Z,0
2017-08-29T01:56:09.810Z,0
2017-08-29T01:56:50.375Z,0
2017-08-29T01:57:30.918Z,0
2017-08-29T01:58:11.482Z,0
2017-08-29T01:58:52.003Z,0
2017-08-29T01:59:32.550Z,0
2017-08-29T02:00:13.098Z,0
2017-08-29T02:00:53.650Z,0
2017-08-29T02:01:34.203Z,0
2017-08-29T02:02:14.744Z,0
2017-08-29T02:02:55.281Z,0
2017-08-29T02:03:35.864Z,0
2017-08-29T02:04:16.413Z,0
2017-08-29T02:04:56.914Z,0
2017-08-29T02:05:37.456Z,0
2017-08-29T02:06:18.000Z,0
2017-08-29T02:06:58.560Z,0
2017-08-29T02:07:39.122Z,0
2017-08-29T02:08:19.707Z,0
2017-08-29T02:09:00.264Z,0
2017-08-29T02:09:40.789Z,0
2017-08-29T02:10:21.344Z,0
2017-08-29T02:11:01.897Z,0
2017-08-29T02:11:42.440Z,0
2017-08-29T02:12:22.987Z,0
2017-08-29T02:13:03.511Z,0
2017-08-29T02:13:44.066Z,0
2017-08-29T02:14:24.549Z,0
2017-08-29T02:15:05.086Z,0
2017-08-29T02:15:45.633Z,0
2017-08-29T02:16:26.211Z,0
2017-08-29T02:17:06.726Z,0
2017-08-29T02:17:47.194Z,0
2017-08-29T02:18:27.727Z,0
2017-08-29T02:19:08.280Z,0
2017-08-29T02:19:48.773Z,0
2017-08-29T02:20:29.341Z,0
2017-08-29T02:21:09.872Z,0
2017-08-29T02:21:50.452Z,0
2017-08-29T02:22:31.008Z,0
2017-08-29T02:23:11.621Z,0
2017-08-29T02:23:52.432Z,0
2017-08-29T02:24:33.130Z,0
2017-08-29T02:25:13.765Z,0
2017-08-29T02:25:54.439Z,0
2017-08-29T02:26:35.378Z,0
2017-08-29T02:27:16.275Z,0
2017-08-29T02:27:57.867Z,0
2017-08-29T02:28:38.725Z,0
2017-08-29T02:29:19.658Z,0
2017-08-29T02:30:00.277Z,0
2017-08-29T02:30:41.138Z,0
2017-08-29T02:31:21.881Z,0
2017-08-29T02:32:02.860Z,0
2017-08-29T02:32:43.711Z,0
2017-08-29T02:33:24.335Z,0
2017-08-29T02:34:05.531Z,0
2017-08-29T02:34:46.432Z,0
2017-08-29T02:35:27.326Z,0
2017-08-29T02:36:08.172Z,0
2017-08-29T02:36:48.726Z,0
2017-08-29T02:37:29.339Z,0
2017-08-29T02:38:10.240Z,0
2017-08-29T02:38:51.062Z,0
2017-08-29T02:39:32.171Z,0
2017-08-29T02:40:12.923Z,0
2017-08-29T02:40:53.483Z,0
2017-08-29T02:41:35.056Z,0
2017-08-29T02:42:16.292Z,0
2017-08-29T02:42:56.869Z,0
2017-08-29T02:43:37.775Z,0
2017-08-29T02:44:18.894Z,0
2017-08-29T02:44:59.623Z,0
2017-08-29T02:45:40.329Z,0
2017-08-29T02:46:21.026Z,0
2017-08-29T02:47:01.612Z,0
2017-08-29T02:47:42.498Z,0
2017-08-29T02:48:23.320Z,0
2017-08-29T02:49:03.910Z,0
2017-08-29T02:49:45.056Z,0
2017-08-29T02:50:25.319Z,0
2017-08-29T02:51:06.277Z,0
2017-08-29T02:51:47.251Z,0
2017-08-29T02:52:27.877Z,0
2017-08-29T02:53:08.816Z,0
2017-08-29T02:53:49.560Z,0
2017-08-29T02:54:30.320Z,0
2017-08-29T02:55:11.378Z,0
2017-08-29T02:55:52.704Z,0
2017-08-29T02:56:33.661Z,0
2017-08-29T02:57:14.889Z,0
2017-08-29T02:57:56.315Z,0
2017-08-29T02:58:37.141Z,0
2017-08-29T02:59:17.735Z,0
2017-08-29T02:59:58.233Z,0
2017-08-29T03:00:39.018Z,0
2017-08-29T03:01:19.998Z,0
2017-08-29T03:02:00.903Z,0
2017-08-29T03:02:41.773Z,0
2017-08-29T03:03:22.667Z,0
2017-08-29T03:04:03.564Z,0
2017-08-29T03:04:44.890Z,0
2017-08-29T03:05:26.172Z,0
2017-08-29T03:06:06.826Z,0
2017-08-29T03:06:47.536Z,0
2017-08-29T03:07:28.123Z,0
2017-08-29T03:08:08.749Z,0
2017-08-29T03:08:49.681Z,0
2017-08-29T03:09:30.838Z,0
2017-08-29T03:10:11.516Z,0
2017-08-29T03:10:52.118Z,0
2017-08-29T03:11:32.659Z,0
2017-08-29T03:12:13.162Z,0
2017-08-29T03:12:53.705Z,0
2017-08-29T03:13:34.221Z,0
2017-08-29T03:14:14.812Z,0
2017-08-29T03:14:55.318Z,0
2017-08-29T03:15:35.849Z,0
2017-08-29T03:16:16.389Z,0
2017-08-29T03:16:57.034Z,0
2017-08-29T03:17:37.498Z,0
2017-08-29T03:18:18.070Z,0
2017-08-29T03:18:58.622Z,0
2017-08-29T03:19:39.183Z,0
2017-08-29T03:20:19.703Z,0
2017-08-29T03:21:00.297Z,0
2017-08-29T03:21:40.798Z,0
2017-08-29T03:22:21.324Z,0
2017-08-29T03:23:01.892Z,0
2017-08-29T03:23:42.373Z,0
2017-08-29T03:24:22.919Z,0
2017-08-29T03:25:03.460Z,0
2017-08-29T03:25:44.013Z,0
2017-08-29T03:26:24.535Z,0
2017-08-29T03:27:05.098Z,0
2017-08-29T03:27:45.634Z,0
2017-08-29T03:28:26.186Z,0
2017-08-29T03:29:06.732Z,0
2017-08-29T03:29:47.231Z,0
2017-08-29T03:30:27.772Z,0
2017-08-29T03:31:08.328Z,0
2017-08-29T03:31:48.876Z,0
2017-08-29T03:32:29.389Z,0
2017-08-29T03:33:09.920Z,0
2017-08-29T03:33:50.484Z,0
2017-08-29T03:34:30.988Z,0
2017-08-29T03:35:11.475Z,0
2017-08-29T03:35:52.039Z,0
2017-08-29T03:36:32.589Z,0
2017-08-29T03:37:13.138Z,0
2017-08-29T03:37:53.676Z,0
2017-08-29T03:38:34.236Z,0
2017-08-29T03:39:14.742Z,0
2017-08-29T03:39:55.267Z,0
2017-08-29T03:40:35.913Z,0
2017-08-29T03:41:16.585Z,0
2017-08-29T03:41:57.124Z,0
2017-08-29T03:42:37.681Z,0
2017-08-29T03:43:18.244Z,0
2017-08-29T03:43:58.788Z,0
2017-08-29T03:44:39.384Z,0
2017-08-29T03:45:19.904Z,0
2017-08-29T03:46:00.446Z,0
2017-08-29T03:46:40.963Z,0
2017-08-29T03:47:21.532Z,0
2017-08-29T03:48:02.053Z,0
2017-08-29T03:48:42.611Z,0
2017-08-29T03:49:23.153Z,0
2017-08-29T03:50:03.719Z,0
2017-08-29T03:50:44.288Z,0
2017-08-29T03:51:24.825Z,0
2017-08-29T03:52:05.877Z,0
2017-08-29T03:52:46.448Z,0
2017-08-29T03:53:27.064Z,0
2017-08-29T03:54:07.625Z,0
2017-08-29T03:54:48.185Z,0
2017-08-29T03:55:28.825Z,0
2017-08-29T03:56:09.387Z,0
2017-08-29T03:56:49.921Z,0
2017-08-29T03:57:30.470Z,0
2017-08-29T03:58:11.031Z,0
2017-08-29T03:58:51.563Z,0
2017-08-29T03:59:32.229Z,0
2017-08-29T04:00:12.655Z,0
2017-08-29T04:00:53.175Z,0
2017-08-29T04:01:33.745Z,0
2017-08-29T04:02:14.277Z,0
2017-08-29T04:02:54.827Z,0
2017-08-29T04:03:35.332Z,0
2017-08-29T04:04:15.907Z,0
2017-08-29T04:04:56.434Z,0
2017-08-29T04:05:37.071Z,0
2017-08-29T04:06:17.551Z,0
2017-08-29T04:06:58.119Z,0
2017-08-29T04:07:38.627Z,0
2017-08-29T04:08:19.227Z,0
2017-08-29T04:08:59.739Z,0
2017-08-29T04:09:40.322Z,0
2017-08-29T04:10:20.823Z,0
2017-08-29T04:11:01.648Z,0
2017-08-29T04:11:42.074Z,0
2017-08-29T04:12:22.578Z,0
2017-08-29T04:13:03.145Z,0
2017-08-29T04:13:43.699Z,0
2017-08-29T04:14:24.172Z,0
2017-08-29T04:15:04.885Z,0
2017-08-29T04:15:45.388Z,0
2017-08-29T04:16:25.933Z,0
2017-08-29T04:17:06.478Z,0
2017-08-29T04:17:46.983Z,0
2017-08-29T04:18:27.547Z,0
2017-08-29T04:19:08.091Z,0
2017-08-29T04:19:48.660Z,0
2017-08-29T04:20:29.194Z,0
2017-08-29T04:21:09.713Z,0
2017-08-29T04:21:50.251Z,0
2017-08-29T04:22:30.791Z,0
2017-08-29T04:23:11.358Z,0
2017-08-29T04:23:51.887Z,0
2017-08-29T04:24:32.443Z,0
2017-08-29T04:25:13.085Z,0
2017-08-29T04:25:53.511Z,0
2017-08-29T04:26:34.073Z,0
2017-08-29T04:27:14.627Z,0
2017-08-29T04:27:55.136Z,0
2017-08-29T04:28:35.691Z,0
2017-08-29T04:29:16.190Z,0
2017-08-29T04:29:56.744Z,0
2017-08-29T04:30:37.303Z,0
2017-08-29T04:31:17.884Z,0
2017-08-29T04:31:58.387Z,0
2017-08-29T04:32:38.952Z,0
2017-08-29T04:33:19.480Z,0
2017-08-29T04:34:00.027Z,0
2017-08-29T04:34:40.623Z,0
2017-08-29T04:35:21.100Z,0
2017-08-29T04:36:01.685Z,0
2017-08-29T04:36:42.281Z,0
2017-08-29T04:37:22.834Z,0
2017-08-29T04:38:03.493Z,0
2017-08-29T04:38:43.915Z,0
2017-08-29T04:39:24.434Z,0
2017-08-29T04:40:04.967Z,0
2017-08-29T04:40:45.516Z,0
2017-08-29T04:41:26.074Z,0
2017-08-29T04:42:06.703Z,0
2017-08-29T04:42:47.255Z,0
2017-08-29T04:43:27.784Z,0
2017-08-29T04:44:08.382Z,5
2017-08-29T04:44:48.837Z,5
2017-08-29T04:45:29.534Z,5
2017-08-29T04:46:09.973Z,5
2017-08-29T04:46:50.476Z,5
2017-08-29T04:47:31.046Z,5
2017-08-29T04:48:11.562Z,5
2017-08-29T04:48:52.093Z,5
2017-08-29T04:49:32.693Z,5
2017-08-29T04:50:13.202Z,5
2017-08-29T04:50:53.738Z,5
2017-08-29T04:51:34.412Z,5
2017-08-29T04:52:14.922Z,5
2017-08-29T04:52:55.403Z,5
2017-08-29T04:53:35.943Z,5
2017-08-29T04:54:16.489Z,5
2017-08-29T04:54:57.060Z,5
2017-08-29T04:55:37.572Z,5
2017-08-29T04:56:18.101Z,10
2017-08-29T04:56:58.683Z,10
2017-08-29T04:57:39.213Z,10
2017-08-29T04:58:19.727Z,10
2017-08-29T04:59:00.281Z,10
2017-08-29T04:59:40.775Z,10
2017-08-29T05:00:21.525Z,10
2017-08-29T05:01:02.031Z,10
2017-08-29T05:01:42.572Z,10
2017-08-29T05:02:23.158Z,10
2017-08-29T05:03:03.746Z,10
2017-08-29T05:03:44.217Z,10
2017-08-29T05:04:24.753Z,10
2017-08-29T05:05:05.318Z,10
2017-08-29T05:05:45.850Z,10
2017-08-29T05:06:26.459Z,10
2017-08-29T05:07:07.003Z,15
2017-08-29T05:07:47.551Z,15
2017-08-29T05:08:28.117Z,15
2017-08-29T05:09:08.716Z,15
2017-08-29T05:09:49.341Z,15
2017-08-29T05:10:29.833Z,15
2017-08-29T05:11:10.388Z,15
2017-08-29T05:11:50.925Z,15
2017-08-29T05:12:31.753Z,15
2017-08-29T05:13:12.246Z,15
2017-08-29T05:13:52.842Z,15
2017-08-29T05:14:33.437Z,15
2017-08-29T05:15:13.909Z,15
2017-08-29T05:15:54.478Z,15
2017-08-29T05:16:35.000Z,20
2017-08-29T05:17:15.547Z,20
2017-08-29T05:17:56.097Z,20
2017-08-29T05:18:36.681Z,20
2017-08-29T05:19:17.117Z,20
2017-08-29T05:19:57.728Z,20
2017-08-29T05:20:38.258Z,20
2017-08-29T05:21:18.795Z,20
2017-08-29T05:21:59.336Z,20
2017-08-29T05:22:39.861Z,20
2017-08-29T05:23:20.374Z,20
2017-08-29T05:24:00.905Z,20
2017-08-29T05:24:41.445Z,20
2017-08-29T05:25:21.986Z,20
2017-08-29T05:26:02.537Z,25
2017-08-29T05:26:43.034Z,25
2017-08-29T05:27:23.616Z,25
2017-08-29T05:28:04.148Z,25
2017-08-29T05:28:44.705Z,25
2017-08-29T05:29:25.298Z,25
2017-08-29T05:30:05.863Z,25
2017-08-29T05:30:46.366Z,25
2017-08-29T05:31:26.855Z,25
2017-08-29T05:32:07.413Z,25
2017-08-29T05:32:47.887Z,25
2017-08-29T05:33:28.450Z,25
2017-08-29T05:34:09.009Z,25
2017-08-29T05:34:50.426Z,25
2017-08-29T05:35:31.018Z,25
2017-08-29T05:36:11.540Z,30
2017-08-29T05:36:52.449Z,30
2017-08-29T05:37:33.047Z,30
2017-08-29T05:38:13.617Z,30
2017-08-29T05:38:54.175Z,30
2017-08-29T05:39:34.709Z,30
2017-08-29T05:40:15.375Z,30
2017-08-29T05:40:55.947Z,30
2017-08-29T05:41:36.664Z,30
2017-08-29T05:42:17.152Z,30
2017-08-29T05:42:57.698Z,30
2017-08-29T05:43:38.266Z,30
2017-08-29T05:44:18.805Z,35
2017-08-29T05:44:59.344Z,35
2017-08-29T05:45:39.876Z,35
2017-08-29T05:46:20.469Z,35
2017-08-29T05:47:00.994Z,35
2017-08-29T05:47:41.561Z,35
2017-08-29T05:48:22.130Z,35
2017-08-29T05:49:02.626Z,35
2017-08-29T05:49:43.176Z,35
2017-08-29T05:50:23.737Z,35
2017-08-29T05:51:04.263Z,35
2017-08-29T05:51:44.790Z,35
2017-08-29T05:52:25.377Z,35
2017-08-29T05:53:05.923Z,35
2017-08-29T05:53:46.416Z,35
2017-08-29T05:54:26.975Z,40
2017-08-29T05:55:07.523Z,40
2017-08-29T05:55:48.063Z,40
2017-08-29T05:56:28.601Z,40
2017-08-29T05:57:09.165Z,40
2017-08-29T05:57:49.715Z,40
2017-08-29T05:58:30.229Z,40
2017-08-29T05:59:10.785Z,40
2017-08-29T05:59:51.278Z,40
2017-08-29T06:00:31.824Z,40
2017-08-29T06:01:12.399Z,40
2017-08-29T06:01:52.965Z,40
2017-08-29T06:02:33.455Z,40
2017-08-29T06:03:13.987Z,40
2017-08-29T06:03:54.489Z,40
2017-08-29T06:04:35.074Z,40
2017-08-29T06:05:15.612Z,40
2017-08-29T06:05:56.114Z,40
2017-08-29T06:06:36.670Z,40
2017-08-29T06:07:17.266Z,45
2017-08-29T06:07:57.773Z,40
2017-08-29T06:08:38.360Z,45
2017-08-29T06:09:18.876Z,45
2017-08-29T06:09:59.458Z,45
2017-08-29T06:10:39.955Z,45
2017-08-29T06:11:20.505Z,45
2017-08-29T06:12:01.030Z,45
2017-08-29T06:12:41.561Z,45
2017-08-29T06:13:22.084Z,45
2017-08-29T06:14:02.646Z,45
2017-08-29T06:14:43.214Z,45
2017-08-29T06:15:23.823Z,40
2017-08-29T06:16:04.396Z,40
2017-08-29T06:16:44.907Z,40
2017-08-29T06:17:25.469Z,40
2017-08-29T06:18:05.973Z,40
2017-08-29T06:18:46.517Z,40
2017-08-29T06:19:27.042Z,40
2017-08-29T06:20:07.592Z,45
2017-08-29T06:20:48.140Z,45
2017-08-29T06:21:28.613Z,45
2017-08-29T06:22:09.195Z,45
2017-08-29T06:22:49.772Z,45
2017-08-29T06:23:30.315Z,45
2017-08-29T06:24:10.879Z,45
2017-08-29T06:24:51.409Z,45
2017-08-29T06:25:32.019Z,45
2017-08-29T06:26:12.565Z,45
2017-08-29T06:26:53.107Z,45
2017-08-29T06:27:33.684Z,45
2017-08-29T06:28:14.190Z,45
2017-08-29T06:28:54.740Z,45
2017-08-29T06:29:35.296Z,45
2017-08-29T06:30:15.855Z,50
2017-08-29T06:30:56.370Z,50
2017-08-29T06:31:36.927Z,50
2017-08-29T06:32:17.477Z,50
2017-08-29T06:32:58.021Z,50
2017-08-29T06:33:38.557Z,50
2017-08-29T06:34:19.128Z,50
2017-08-29T06:34:59.665Z,50
2017-08-29T06:35:40.199Z,50
2017-08-29T06:36:20.760Z,55
2017-08-29T06:37:01.318Z,55
2017-08-29T06:37:41.870Z,55
2017-08-29T06:38:22.384Z,55
2017-08-29T06:39:02.940Z,55
2017-08-29T06:39:43.528Z,55
2017-08-29T06:40:24.108Z,55
2017-08-29T06:41:04.671Z,55
2017-08-29T06:41:45.236Z,55
2017-08-29T06:42:25.742Z,55
2017-08-29T06:43:06.293Z,55
2017-08-29T06:43:46.780Z,55
2017-08-29T06:44:27.324Z,55
2017-08-29T06:45:07.890Z,55
2017-08-29T06:45:48.431Z,55
2017-08-29T06:46:29.042Z,55
2017-08-29T06:47:09.624Z,60
2017-08-29T06:47:50.137Z,60
2017-08-29T06:48:30.692Z,55
2017-08-29T06:49:11.258Z,55
2017-08-29T06:49:51.795Z,55
2017-08-29T06:50:32.422Z,55
2017-08-29T06:51:13.014Z,55
2017-08-29T06:51:53.599Z,55
2017-08-29T06:52:34.448Z,55
2017-08-29T06:53:15.211Z,55
2017-08-29T06:53:55.823Z,55
2017-08-29T06:54:36.383Z,55
2017-08-29T06:55:16.931Z,55
2017-08-29T06:55:57.483Z,55
2017-08-29T06:56:38.002Z,55
2017-08-29T06:57:18.534Z,55
2017-08-29T06:57:59.101Z,55
2017-08-29T06:58:39.612Z,55
2017-08-29T06:59:20.156Z,55
2017-08-29T07:00:00.705Z,55
2017-08-29T07:00:41.333Z,60
2017-08-29T07:01:21.915Z,60
2017-08-29T07:02:02.454Z,55
2017-08-29T07:02:43.019Z,60
2017-08-29T07:03:23.604Z,65
2017-08-29T07:04:04.115Z,65
2017-08-29T07:04:44.656Z,70
2017-08-29T07:05:25.186Z,75
2017-08-29T07:06:05.738Z,75
2017-08-29T07:06:46.318Z,75
2017-08-29T07:07:26.864Z,75
2017-08-29T07:08:07.384Z,80
2017-08-29T07:08:47.936Z,80
2017-08-29T07:09:28.508Z,80
2017-08-29T07:10:09.077Z,80
2017-08-29T07:10:49.652Z,80
2017-08-29T07:11:30.163Z,85
2017-08-29T07:12:10.709Z,85
2017-08-29T07:12:51.260Z,80
2017-08-29T07:13:31.796Z,80
2017-08-29T07:14:12.349Z,80
2017-08-29T07:14:52.861Z,80
2017-08-29T07:15:33.577Z,85
2017-08-29T07:16:14.142Z,85
2017-08-29T07:16:54.688Z,85
2017-08-29T07:17:35.253Z,85
2017-08-29T07:18:16.449Z,85
2017-08-29T07:18:56.887Z,85
2017-08-29T07:19:37.535Z,85
2017-08-29T07:20:18.082Z,85
2017-08-29T07:20:58.634Z,85
2017-08-29T07:21:39.188Z,85
2017-08-29T07:22:19.720Z,85
2017-08-29T07:23:00.256Z,85
2017-08-29T07:23:40.788Z,85
2017-08-29T07:24:21.376Z,85
2017-08-29T07:25:01.919Z,85
2017-08-29T07:25:42.477Z,85
2017-08-29T07:26:23.041Z,85
2017-08-29T07:27:03.542Z,85
2017-08-29T07:27:44.142Z,85
2017-08-29T07:28:24.669Z,85
2017-08-29T07:29:05.190Z,85
2017-08-29T07:29:45.748Z,85
2017-08-29T07:30:26.297Z,85
2017-08-29T07:31:06.851Z,85
2017-08-29T07:31:47.398Z,85
2017-08-29T07:32:27.945Z,85
2017-08-29T07:33:08.484Z,85
2017-08-29T07:33:49.048Z,85
2017-08-29T07:34:29.604Z,80
2017-08-29T07:35:10.168Z,80
2017-08-29T07:35:50.686Z,80
2017-08-29T07:36:31.259Z,80
2017-08-29T07:37:11.802Z,80
2017-08-29T07:37:52.318Z,80
2017-08-29T07:38:32.878Z,80
2017-08-29T07:39:13.454Z,80
2017-08-29T07:39:54.011Z,80
2017-08-29T07:40:34.560Z,75
2017-08-29T07:41:15.088Z,75
2017-08-29T07:41:55.639Z,75
2017-08-29T07:42:36.221Z,75
2017-08-29T07:43:16.786Z,75
2017-08-29T07:43:57.299Z,75
2017-08-29T07:44:37.820Z,75
2017-08-29T07:45:18.350Z,70
2017-08-29T07:45:58.967Z,70
2017-08-29T07:46:39.528Z,70
2017-08-29T07:47:20.023Z,70
2017-08-29T07:48:00.603Z,70
2017-08-29T07:48:41.110Z,70
2017-08-29T07:49:21.631Z,70
2017-08-29T07:50:02.196Z,70
2017-08-29T07:50:42.990Z,70
2017-08-29T07:51:23.534Z,70
2017-08-29T07:52:04.081Z,75
2017-08-29T07:52:44.630Z,70
2017-08-29T07:53:25.178Z,65
2017-08-29T07:54:05.679Z,65
2017-08-29T07:54:46.249Z,60
2017-08-29T07:55:26.861Z,60
2017-08-29T07:56:07.338Z,60
2017-08-29T07:56:47.862Z,60
2017-08-29T07:57:28.422Z,55
2017-08-29T07:58:08.973Z,55
2017-08-29T07:58:49.513Z,55
2017-08-29T07:59:30.107Z,55
2017-08-29T08:00:10.637Z,55
2017-08-29T08:00:51.193Z,55
2017-08-29T08:01:31.801Z,55
2017-08-29T08:02:12.402Z,55
2017-08-29T08:02:52.950Z,55
2017-08-29T08:03:33.526Z,55
2017-08-29T08:04:14.129Z,55
2017-08-29T08:04:54.583Z,55
2017-08-29T08:05:35.140Z,55
2017-08-29T08:06:15.735Z,55
2017-08-29T08:06:56.258Z,55
2017-08-29T08:07:36.845Z,55
2017-08-29T08:08:17.345Z,55
2017-08-29T08:08:57.957Z,55
2017-08-29T08:09:38.489Z,55
2017-08-29T08:10:19.016Z,55
2017-08-29T08:10:59.618Z,55
2017-08-29T08:11:40.121Z,55
2017-08-29T08:12:20.703Z,55
2017-08-29T08:13:01.284Z,55
2017-08-29T08:13:41.817Z,55
2017-08-29T08:14:22.395Z,55
2017-08-29T08:15:02.911Z,55
2017-08-29T08:15:43.472Z,55
2017-08-29T08:16:24.019Z,55
2017-08-29T08:17:04.569Z,55
2017-08-29T08:17:45.075Z,55
2017-08-29T08:18:25.621Z,55
2017-08-29T08:19:06.171Z,55
2017-08-29T08:19:46.719Z,55
2017-08-29T08:20:27.235Z,55
2017-08-29T08:21:07.761Z,55
2017-08-29T08:21:48.272Z,55
2017-08-29T08:22:28.858Z,55
2017-08-29T08:23:09.423Z,55
2017-08-29T08:23:49.932Z,55
2017-08-29T08:24:30.548Z,55
2017-08-29T08:25:11.037Z,55
2017-08-29T08:25:51.574Z,55
2017-08-29T08:26:32.154Z,55
2017-08-29T08:27:12.721Z,55
2017-08-29T08:27:53.811Z,55
2017-08-29T08:28:34.366Z,55
2017-08-29T08:29:14.867Z,55
2017-08-29T08:29:55.441Z,55
2017-08-29T08:30:36.059Z,55
2017-08-29T08:31:16.520Z,55
2017-08-29T08:31:57.014Z,55
2017-08-29T08:32:37.560Z,55
2017-08-29T08:33:18.101Z,55
2017-08-29T08:33:58.648Z,55
2017-08-29T08:34:39.219Z,55
2017-08-29T08:35:19.789Z,55
2017-08-29T08:36:00.317Z,55
2017-08-29T08:36:40.873Z,55
2017-08-29T08:37:21.419Z,55
2017-08-29T08:38:01.950Z,55
2017-08-29T08:38:42.510Z,55
2017-08-29T08:39:23.067Z,55
2017-08-29T08:40:03.607Z,55
2017-08-29T08:40:44.128Z,55
2017-08-29T08:41:24.640Z,55
2017-08-29T08:42:05.223Z,55
2017-08-29T08:42:45.794Z,55
2017-08-29T08:43:26.297Z,55
2017-08-29T08:44:06.853Z,55
2017-08-29T08:44:47.408Z,55
2017-08-29T08:45:27.950Z,55
2017-08-29T08:46:08.477Z,55
2017-08-29T08:46:49.036Z,55
2017-08-29T08:47:29.573Z,55
2017-08-29T08:48:10.594Z,55
2017-08-29T08:48:51.207Z,55
2017-08-29T08:49:31.989Z,55
2017-08-29T08:50:12.700Z,55
2017-08-29T08:50:53.335Z,55
2017-08-29T08:51:33.872Z,55
2017-08-29T08:52:14.427Z,55
2017-08-29T08:52:54.977Z,55
2017-08-29T08:53:35.563Z,55
2017-08-29T08:54:16.085Z,55
2017-08-29T08:54:56.638Z,55
2017-08-29T08:55:37.158Z,55
2017-08-29T08:56:17.756Z,55
2017-08-29T08:56:58.282Z,55
2017-08-29T08:57:38.955Z,55
2017-08-29T08:58:19.565Z,55
2017-08-29T08:59:00.061Z,55
2017-08-29T08:59:40.641Z,55
2017-08-29T09:00:21.175Z,55
2017-08-29T09:01:01.682Z,55
2017-08-29T09:01:42.226Z,55
2017-08-29T09:02:22.742Z,55
2017-08-29T09:03:03.306Z,55
2017-08-29T09:03:43.878Z,55
2017-08-29T09:04:24.375Z,60
2017-08-29T09:05:04.932Z,55
2017-08-29T09:05:45.458Z,55
2017-08-29T09:06:25.977Z,55
2017-08-29T09:07:06.534Z,55
2017-08-29T09:07:47.015Z,55
2017-08-29T09:08:27.558Z,55
2017-08-29T09:09:08.096Z,60
2017-08-29T09:09:48.670Z,55
2017-08-29T09:10:29.203Z,55
2017-08-29T09:11:09.759Z,55
2017-08-29T09:11:50.403Z,55
2017-08-29T09:12:30.885Z,55
2017-08-29T09:13:11.392Z,55
2017-08-29T09:13:51.973Z,55
2017-08-29T09:14:32.524Z,55
2017-08-29T09:15:13.094Z,55
2017-08-29T09:15:53.544Z,55
2017-08-29T09:16:34.130Z,55
2017-08-29T09:17:14.680Z,55
2017-08-29T09:17:55.237Z,55
2017-08-29T09:18:35.794Z,55
2017-08-29T09:19:16.258Z,55
2017-08-29T09:19:56.861Z,55
2017-08-29T09:20:37.394Z,55
2017-08-29T09:21:17.961Z,60
2017-08-29T09:21:58.508Z,50
2017-08-29T09:22:39.029Z,50
2017-08-29T09:23:19.633Z,55
2017-08-29T09:24:00.206Z,50
2017-08-29T09:24:40.688Z,50
2017-08-29T09:25:21.264Z,50
2017-08-29T09:26:01.856Z,50
2017-08-29T09:26:42.376Z,50
2017-08-29T09:27:22.942Z,50
2017-08-29T09:28:03.455Z,50
2017-08-29T09:28:43.988Z,55
2017-08-29T09:29:24.609Z,55
2017-08-29T09:30:05.160Z,50
2017-08-29T09:30:45.726Z,50
2017-08-29T09:31:26.285Z,50
2017-08-29T09:32:06.902Z,50
2017-08-29T09:32:47.418Z,50
2017-08-29T09:33:27.972Z,50
2017-08-29T09:34:08.484Z,50
2017-08-29T09:34:49.021Z,55
2017-08-29T09:35:29.544Z,50
2017-08-29T09:36:10.111Z,50
2017-08-29T09:36:50.694Z,50
2017-08-29T09:37:31.250Z,50
2017-08-29T09:38:11.790Z,50
2017-08-29T09:38:52.354Z,50
2017-08-29T09:39:32.891Z,50
2017-08-29T09:40:13.438Z,50
2017-08-29T09:40:53.980Z,50
2017-08-29T09:41:34.572Z,50
2017-08-29T09:42:15.203Z,50
2017-08-29T09:42:55.739Z,50
2017-08-29T09:43:36.337Z,50
2017-08-29T09:44:16.838Z,50
2017-08-29T09:44:57.345Z,50
2017-08-29T09:45:37.920Z,50
2017-08-29T09:46:18.510Z,50
2017-08-29T09:46:59.047Z,50
2017-08-29T09:47:39.601Z,50
2017-08-29T09:48:20.113Z,50
2017-08-29T09:49:00.648Z,50
2017-08-29T09:49:41.185Z,50
2017-08-29T09:50:21.768Z,50
2017-08-29T09:51:02.272Z,50